Time;durP1;ratioP1;P1;durP2;ratioP2;P2;SDS_P1;SDS_P2;PMS_P1;PMS_P2;Temp;Humidity;BMP_temperature;BMP_pressure;BME280_temperature;BME280_humidity;BME280_pressure;Samples;Min_cycle;Max_cycle;Signal;HPM_P1;HPM_P2
2023/07/05 00:01:41;;;;;;;10.23;5.75;;;18.30;99.90;;;;;;5072302;28;20197;-51
2023/07/05 00:04:06;;;;;;;5.60;3.75;;;18.30;99.90;;;;;;5091610;28;20256;-51
2023/07/05 00:06:32;;;;;;;14.20;6.20;;;18.30;99.90;;;;;;5091851;28;20170;-51
2023/07/05 00:08:57;;;;;;;4.35;3.55;;;18.30;99.90;;;;;;5091729;28;20168;-51
2023/07/05 00:11:23;;;;;;;20.65;9.10;;;18.30;99.90;;;;;;5091644;28;20220;-51
2023/07/05 00:13:49;;;;;;;6.60;4.03;;;18.40;99.90;;;;;;5091728;28;20165;-51
2023/07/05 00:16:15;;;;;;;7.25;4.22;;;18.40;99.90;;;;;;5092031;28;20226;-51
2023/07/05 00:18:41;;;;;;;12.02;6.30;;;18.40;99.90;;;;;;5091857;28;20205;-51
2023/07/05 00:21:09;;;;;;;13.45;7.50;;;18.30;99.90;;;;;;5091931;28;20162;-51
2023/07/05 00:23:36;;;;;;;13.05;6.45;;;18.30;99.90;;;;;;5091830;28;20177;-51
2023/07/05 00:26:03;;;;;;;15.98;9.55;;;18.30;99.90;;;;;;5092045;28;20169;-51
2023/07/05 00:28:28;;;;;;;10.82;6.03;;;18.30;99.90;;;;;;5091904;28;20215;-51
2023/07/05 00:30:54;;;;;;;14.43;8.98;;;18.40;99.90;;;;;;5092007;28;20169;-51
2023/07/05 00:33:19;;;;;;;10.40;6.07;;;18.30;99.90;;;;;;5091729;28;20700;-51
2023/07/05 00:35:50;;;;;;;20.55;10.90;;;18.20;99.90;;;;;;5074176;28;20169;-51
2023/07/05 00:38:17;;;;;;;4.88;3.72;;;18.20;99.90;;;;;;5091629;28;20209;-51
2023/07/05 00:40:42;;;;;;;21.40;13.75;;;18.20;99.90;;;;;;5092169;28;20211;-51
2023/07/05 00:43:09;;;;;;;8.98;5.72;;;18.30;99.90;;;;;;5091597;28;20169;-52
2023/07/05 00:45:56;;;;;;;9.57;4.95;;;18.20;99.90;;;;;;5091586;28;20632;-51
2023/07/05 00:48:35;;;;;;;13.75;9.55;;;18.30;99.90;;;;;;5091833;28;20169;-51
2023/07/05 00:51:06;;;;;;;35.15;21.52;;;18.30;99.90;;;;;;5091804;28;20176;-51
2023/07/05 00:53:35;;;;;;;19.75;11.15;;;18.20;99.90;;;;;;5091544;28;20173;-51
2023/07/05 00:56:09;;;;;;;10.30;7.10;;;18.30;99.90;;;;;;5091507;28;20169;-51
2023/07/05 00:58:35;;;;;;;11.70;6.88;;;18.30;99.90;;;;;;5091360;28;20265;-51
2023/07/05 01:01:01;;;;;;;11.88;8.73;;;18.20;99.90;;;;;;5091450;28;20170;-51
2023/07/05 01:03:27;;;;;;;8.40;5.07;;;18.20;99.90;;;;;;5091530;28;20180;-51
2023/07/05 01:05:57;;;;;;;5.05;3.70;;;18.20;99.90;;;;;;5091418;28;20218;-51
2023/07/05 01:08:24;;;;;;;9.73;6.30;;;18.10;99.90;;;;;;5092952;28;20621;-51
2023/07/05 01:11:06;;;;;;;16.48;10.32;;;18.20;99.90;;;;;;5095270;28;20262;-51
2023/07/05 01:13:40;;;;;;;8.32;4.10;;;18.20;99.90;;;;;;5095357;28;20177;-51
2023/07/05 01:16:23;;;;;;;5.65;3.15;;;18.20;99.90;;;;;;5095337;28;20160;-51
2023/07/05 01:19:37;;;;;;;7.93;3.72;;;18.20;99.90;;;;;;5095391;28;20219;-51
2023/07/05 01:22:11;;;;;;;15.65;7.90;;;18.10;99.90;;;;;;5095165;28;20161;-51
2023/07/05 01:25:21;;;;;;;18.45;10.38;;;18.10;99.90;;;;;;5095426;28;20172;-51
2023/07/05 01:28:06;;;;;;;18.95;9.73;;;18.20;99.90;;;;;;4993455;28;20269;-51
2023/07/05 01:30:46;;;;;;;17.33;9.02;;;18.20;99.90;;;;;;5093808;28;20216;-51
2023/07/05 01:33:33;;;;;;;9.50;7.63;;;18.20;99.90;;;;;;5095364;28;20161;-51
2023/07/05 01:35:58;;;;;;;9.90;7.80;;;18.20;99.90;;;;;;5094942;28;20202;-51
2023/07/05 01:38:24;;;;;;;5.05;3.75;;;18.20;99.90;;;;;;5094855;28;20283;-51
2023/07/05 01:40:55;;;;;;;7.45;5.65;;;18.20;99.90;;;;;;5094864;28;20248;-51
2023/07/05 01:43:22;;;;;;;11.68;7.88;;;18.10;99.90;;;;;;5094787;28;20652;-51
2023/07/05 01:46:26;;;;;;;16.55;5.75;;;18.10;99.90;;;;;;5094786;28;20629;-51
2023/07/05 01:49:15;;;;;;;6.35;3.17;;;18.10;99.90;;;;;;5079839;28;20173;-51
2023/07/05 01:51:48;;;;;;;3.85;2.67;;;18.20;99.90;;;;;;5077544;28;20651;-51
2023/07/05 01:54:17;;;;;;;8.77;4.07;;;18.20;99.90;;;;;;5095249;28;20165;-51
2023/07/05 01:56:51;;;;;;;5.47;2.65;;;18.20;99.90;;;;;;5095144;28;20256;-51
2023/07/05 01:59:25;;;;;;;5.85;2.78;;;18.20;99.90;;;;;;5094468;28;20187;-51
2023/07/05 02:01:53;;;;;;;7.72;4.10;;;18.20;99.90;;;;;;5094567;28;20165;-51
2023/07/05 02:04:21;;;;;;;3.50;2.22;;;18.20;99.90;;;;;;5094139;28;20197;-51
2023/07/05 02:06:47;;;;;;;4.50;2.80;;;18.30;99.90;;;;;;5094356;28;20633;-51
2023/07/05 02:09:12;;;;;;;4.68;3.10;;;18.30;99.90;;;;;;5094700;28;20165;-51
2023/07/05 02:11:38;;;;;;;3.75;2.65;;;18.20;99.90;;;;;;5094271;28;20157;-51
2023/07/05 02:14:04;;;;;;;8.52;4.30;;;18.20;99.90;;;;;;5094235;28;20694;-51
2023/07/05 02:16:30;;;;;;;10.00;3.58;;;18.30;99.90;;;;;;5094470;28;20183;-51
2023/07/05 02:18:55;;;;;;;6.72;3.08;;;18.20;99.90;;;;;;5093678;28;20201;-51
2023/07/05 02:21:21;;;;;;;7.47;3.22;;;18.30;99.90;;;;;;5093588;28;20227;-51
2023/07/05 02:23:46;;;;;;;3.95;2.53;;;18.20;99.90;;;;;;5094052;28;20639;-51
2023/07/05 02:26:12;;;;;;;4.78;2.60;;;18.10;99.90;;;;;;5094587;28;20248;-52
2023/07/05 02:28:37;;;;;;;5.40;3.20;;;18.00;99.90;;;;;;5093982;28;20521;-51
2023/07/05 02:31:11;;;;;;;4.15;3.20;;;18.00;99.90;;;;;;5093928;28;20524;-51
2023/07/05 02:33:40;;;;;;;7.53;3.85;;;18.00;99.90;;;;;;5094137;28;20200;-51
2023/07/05 02:36:11;;;;;;;8.80;4.28;;;18.00;99.90;;;;;;5093850;28;20222;-51
2023/07/05 02:38:37;;;;;;;9.18;4.63;;;17.90;99.90;;;;;;5093600;28;20205;-51
2023/07/05 02:41:03;;;;;;;10.32;3.83;;;17.90;99.90;;;;;;5093936;28;20173;-51
2023/07/05 02:43:28;;;;;;;8.55;4.65;;;17.90;99.90;;;;;;5093901;28;20166;-51
2023/07/05 02:45:54;;;;;;;9.95;3.35;;;18.00;99.90;;;;;;5093784;28;20613;-51
2023/07/05 02:48:19;;;;;;;7.00;2.90;;;17.80;99.90;;;;;;5093553;28;20177;-52
2023/07/05 02:50:45;;;;;;;3.80;2.00;;;17.80;99.90;;;;;;5093756;28;20625;-52
2023/07/05 02:53:10;;;;;;;7.45;2.40;;;17.80;99.90;;;;;;5093960;28;20643;-51
2023/07/05 02:55:36;;;;;;;4.40;2.10;;;17.80;99.90;;;;;;5093418;28;20498;-51
2023/07/05 02:58:02;;;;;;;4.93;2.20;;;17.70;99.90;;;;;;5093317;28;20602;-51
2023/07/05 03:00:29;;;;;;;4.18;2.00;;;17.70;99.90;;;;;;5093366;28;20175;-51
2023/07/05 03:02:55;;;;;;;2.90;1.85;;;17.70;99.90;;;;;;5093292;28;20594;-51
2023/07/05 03:05:21;;;;;;;1.85;1.55;;;17.60;99.90;;;;;;5092867;28;20158;-51
2023/07/05 03:07:46;;;;;;;3.30;1.63;;;17.50;99.90;;;;;;5092823;28;20161;-51
2023/07/05 03:10:12;;;;;;;1.95;1.50;;;17.40;99.90;;;;;;5093561;28;20213;-51
2023/07/05 03:12:39;;;;;;;2.83;1.50;;;17.30;99.90;;;;;;5093110;28;20166;-51
2023/07/05 03:15:05;;;;;;;3.05;1.60;;;17.20;99.90;;;;;;5093046;28;20529;-51
2023/07/05 03:17:31;;;;;;;2.40;1.52;;;17.10;99.90;;;;;;5092976;28;20676;-51
2023/07/05 03:19:59;;;;;;;3.45;1.95;;;17.00;99.90;;;;;;5092952;28;20214;-51
2023/07/05 03:22:28;;;;;;;2.47;1.73;;;16.90;99.90;;;;;;5093164;28;20204;-51
2023/07/05 03:24:54;;;;;;;2.35;1.88;;;16.70;99.90;;;;;;5092874;28;20161;-51
2023/07/05 03:27:20;;;;;;;2.60;1.92;;;16.60;99.90;;;;;;5092755;28;20173;-51
2023/07/05 03:29:46;;;;;;;3.63;2.00;;;16.50;99.90;;;;;;5092862;28;20172;-51
2023/07/05 03:32:11;;;;;;;8.48;2.28;;;16.40;99.90;;;;;;5092787;28;20169;-51
2023/07/05 03:34:37;;;;;;;4.10;1.88;;;16.20;99.90;;;;;;5092656;28;20252;-51
2023/07/05 03:37:03;;;;;;;2.20;1.77;;;16.20;99.90;;;;;;5092550;28;20217;-51
2023/07/05 03:39:29;;;;;;;2.70;1.98;;;16.20;99.90;;;;;;5074443;28;20169;-51
2023/07/05 03:41:55;;;;;;;2.53;2.10;;;16.10;99.90;;;;;;5092547;28;20164;-51
2023/07/05 03:44:22;;;;;;;3.15;1.98;;;16.00;99.90;;;;;;5092486;28;20169;-51
2023/07/05 03:46:49;;;;;;;7.13;1.92;;;16.00;99.90;;;;;;5092649;28;20166;-51
2023/07/05 03:49:15;;;;;;;4.60;2.05;;;16.00;99.90;;;;;;5093112;28;20551;-51
2023/07/05 03:51:40;;;;;;;2.53;1.77;;;15.90;99.90;;;;;;5074638;28;20165;-51
2023/07/05 03:54:06;;;;;;;5.53;2.00;;;15.80;99.90;;;;;;5092294;28;20191;-51
2023/07/05 03:56:34;;;;;;;4.18;2.13;;;15.80;99.90;;;;;;5092291;28;20225;-51
2023/07/05 03:59:00;;;;;;;3.88;1.85;;;15.70;99.90;;;;;;5091661;28;20208;-51
2023/07/05 04:01:27;;;;;;;4.72;1.92;;;15.70;99.90;;;;;;5092237;28;20161;-51
2023/07/05 04:03:57;;;;;;;3.75;2.20;;;15.60;99.90;;;;;;5092356;28;20237;-51
2023/07/05 04:06:25;;;;;;;3.17;2.00;;;15.50;99.90;;;;;;5091993;28;20713;-51
2023/07/05 04:08:50;;;;;;;5.07;2.03;;;15.50;99.90;;;;;;5092329;28;20217;-51
2023/07/05 04:11:17;;;;;;;5.85;2.15;;;15.40;99.90;;;;;;5091818;28;20654;-51
2023/07/05 04:13:44;;;;;;;2.00;1.80;;;15.40;99.90;;;;;;5092359;28;20177;-51
2023/07/05 04:16:15;;;;;;;4.28;2.33;;;15.40;99.90;;;;;;5092586;28;20170;-51
2023/07/05 04:18:42;;;;;;;2.47;2.10;;;15.30;99.90;;;;;;5092228;28;20201;-51
2023/07/05 04:21:09;;;;;;;1.67;1.55;;;15.40;99.90;;;;;;5091890;28;20161;-51
2023/07/05 04:23:36;;;;;;;4.25;2.00;;;15.30;99.90;;;;;;5091834;28;20637;-51
2023/07/05 04:26:08;;;;;;;3.35;1.73;;;15.40;99.90;;;;;;5091625;28;20223;-51
2023/07/05 04:28:34;;;;;;;2.42;1.73;;;15.40;99.90;;;;;;5091824;28;20171;-51
2023/07/05 04:31:00;;;;;;;2.92;1.70;;;15.40;99.90;;;;;;5091715;28;20188;-51
2023/07/05 04:33:27;;;;;;;4.32;2.15;;;15.40;99.90;;;;;;5091628;28;20176;-51
2023/07/05 04:35:56;;;;;;;3.63;1.95;;;15.40;99.90;;;;;;5091780;28;20174;-51
2023/07/05 04:38:22;;;;;;;2.40;2.13;;;15.50;99.90;;;;;;5091733;28;20209;-51
2023/07/05 04:40:48;;;;;;;5.03;2.35;;;15.50;99.90;;;;;;5091672;28;20173;-51
2023/07/05 04:43:14;;;;;;;3.45;2.35;;;15.50;99.90;;;;;;5091304;28;20170;-51
2023/07/05 04:45:40;;;;;;;3.40;2.10;;;15.50;99.90;;;;;;5073410;28;20519;-51
2023/07/05 04:48:05;;;;;;;4.20;2.50;;;15.50;99.90;;;;;;5091543;28;20188;-51
2023/07/05 04:50:31;;;;;;;6.93;2.67;;;15.50;99.90;;;;;;5073819;28;20168;-51
2023/07/05 04:52:56;;;;;;;4.80;2.30;;;15.60;99.90;;;;;;5091611;28;20575;-51
2023/07/05 04:55:22;;;;;;;5.15;2.70;;;15.70;99.90;;;;;;5091538;28;20568;-51
2023/07/05 04:57:48;;;;;;;2.80;2.05;;;15.80;99.90;;;;;;5091482;28;20561;-52
2023/07/05 05:00:14;;;;;;;2.63;2.40;;;15.80;99.90;;;;;;5073731;28;20169;-51
2023/07/05 05:02:40;;;;;;;4.85;2.92;;;16.00;99.90;;;;;;5091904;28;20168;-51
2023/07/05 05:05:06;;;;;;;4.45;2.67;;;16.00;99.90;;;;;;5091576;28;20169;-51
2023/07/05 05:07:32;;;;;;;3.47;2.60;;;15.90;99.90;;;;;;5091396;28;20252;-51
2023/07/05 05:09:59;;;;;;;3.60;2.60;;;15.90;99.90;;;;;;5073129;28;20302;-51
2023/07/05 05:12:25;;;;;;;4.13;2.50;;;16.00;99.90;;;;;;5091166;28;20161;-51
2023/07/05 05:14:50;;;;;;;3.58;2.47;;;15.90;99.90;;;;;;5091352;28;20246;-51
2023/07/05 05:17:16;;;;;;;5.00;2.97;;;15.90;99.90;;;;;;5091341;28;20280;-51
2023/07/05 05:19:42;;;;;;;8.55;2.75;;;15.90;99.90;;;;;;5091642;28;20197;-51
2023/07/05 05:22:10;;;;;;;6.50;3.10;;;15.90;99.90;;;;;;5091259;28;20172;-51
2023/07/05 05:24:35;;;;;;;4.65;2.85;;;15.90;99.90;;;;;;5091266;28;20172;-51
2023/07/05 05:27:01;;;;;;;4.55;3.17;;;15.90;99.90;;;;;;5091368;28;20170;-51
2023/07/05 05:29:27;;;;;;;4.70;2.90;;;15.90;99.90;;;;;;5091250;28;20216;-51
2023/07/05 05:31:53;;;;;;;5.47;3.05;;;15.90;99.90;;;;;;5091420;28;20185;-51
2023/07/05 05:34:19;;;;;;;3.42;2.05;;;15.90;99.90;;;;;;5091108;28;20169;-51
2023/07/05 05:36:44;;;;;;;5.20;3.05;;;16.00;99.90;;;;;;5091156;28;20169;-51
2023/07/05 05:39:10;;;;;;;5.75;2.90;;;16.00;99.90;;;;;;5091330;28;20302;-51
2023/07/05 05:41:35;;;;;;;6.55;2.90;;;16.00;99.90;;;;;;5091037;28;20559;-51
2023/07/05 05:44:01;;;;;;;4.88;3.38;;;16.00;99.90;;;;;;5091062;28;20173;-51
2023/07/05 05:46:26;;;;;;;4.95;3.22;;;15.90;99.90;;;;;;5091098;28;20166;-51
2023/07/05 05:48:52;;;;;;;9.20;3.63;;;16.00;99.90;;;;;;5091063;28;20172;-51
2023/07/05 05:51:17;;;;;;;4.68;3.17;;;15.80;99.90;;;;;;5090998;28;20174;-51
2023/07/05 05:53:43;;;;;;;4.30;2.92;;;15.80;99.90;;;;;;5091970;28;20194;-52
2023/07/05 05:56:09;;;;;;;5.72;3.22;;;15.80;99.90;;;;;;5094527;28;20165;-52
2023/07/05 05:58:35;;;;;;;6.18;2.83;;;15.80;99.90;;;;;;5094223;28;20209;-51
2023/07/05 06:01:03;;;;;;;5.60;3.35;;;15.80;99.90;;;;;;5094602;28;20256;-51
2023/07/05 06:03:29;;;;;;;5.15;3.00;;;15.70;99.90;;;;;;5094421;28;20177;-51
2023/07/05 06:05:55;;;;;;;2.47;2.03;;;15.70;99.90;;;;;;5094445;28;20173;-51
2023/07/05 06:08:21;;;;;;;5.32;2.00;;;15.70;99.90;;;;;;5094299;28;20165;-51
2023/07/05 06:10:53;;;;;;;3.40;2.30;;;15.60;99.90;;;;;;5094023;28;20213;-51
2023/07/05 06:13:19;;;;;;;3.28;1.60;;;15.50;99.90;;;;;;5094196;28;20536;-51
2023/07/05 06:15:44;;;;;;;3.70;2.30;;;15.50;99.90;;;;;;5094137;28;20169;-51
2023/07/05 06:18:10;;;;;;;5.90;2.35;;;15.50;99.90;;;;;;5094514;28;20212;-51
2023/07/05 06:20:35;;;;;;;4.07;2.20;;;15.60;99.90;;;;;;5093945;28;20161;-51
2023/07/05 06:23:03;;;;;;;8.98;3.10;;;15.60;99.90;;;;;;5093616;28;20540;-51
2023/07/05 06:25:30;;;;;;;2.95;1.95;;;15.60;99.90;;;;;;5094128;28;20170;-51
2023/07/05 06:27:55;;;;;;;2.13;1.80;;;15.70;99.90;;;;;;5076167;28;20532;-51
2023/07/05 06:30:21;;;;;;;5.05;2.40;;;15.70;99.90;;;;;;5075790;28;20170;-51
2023/07/05 06:32:46;;;;;;;5.72;2.40;;;15.90;99.90;;;;;;5093831;28;20172;-52
2023/07/05 06:35:12;;;;;;;4.30;2.00;;;15.90;99.90;;;;;;5094384;28;20170;-51
2023/07/05 06:37:37;;;;;;;6.82;2.28;;;15.80;99.90;;;;;;5093686;28;20283;-51
2023/07/05 06:40:04;;;;;;;3.28;2.03;;;15.80;99.90;;;;;;5093791;28;20192;-52
2023/07/05 06:42:29;;;;;;;5.88;2.10;;;15.80;99.90;;;;;;5093799;28;20169;-52
2023/07/05 06:44:55;;;;;;;7.18;2.33;;;15.90;99.90;;;;;;5093564;28;20601;-51
2023/07/05 06:47:20;;;;;;;2.50;1.80;;;16.00;99.90;;;;;;5093590;28;20653;-51
2023/07/05 06:49:46;;;;;;;4.22;1.90;;;16.10;99.90;;;;;;5093489;28;20622;-51
2023/07/05 06:52:11;;;;;;;4.07;1.83;;;16.10;99.90;;;;;;5093863;28;20210;-51
2023/07/05 06:54:37;;;;;;;4.20;2.10;;;16.30;99.90;;;;;;5093568;28;20202;-51
2023/07/05 06:57:03;;;;;;;2.75;1.98;;;16.40;99.90;;;;;;5093215;28;20245;-51
2023/07/05 06:59:28;;;;;;;3.05;2.28;;;16.20;99.90;;;;;;5093602;28;20181;-51
2023/07/05 07:01:54;;;;;;;6.65;2.67;;;16.30;99.90;;;;;;5093279;28;20180;-51
2023/07/05 07:04:19;;;;;;;6.53;2.17;;;16.40;99.90;;;;;;5093125;28;20161;-51
2023/07/05 07:06:45;;;;;;;7.03;2.47;;;16.50;99.90;;;;;;5092578;28;20165;-51
2023/07/05 07:09:12;;;;;;;3.20;2.08;;;16.50;99.90;;;;;;5093496;28;20214;-51
2023/07/05 07:11:38;;;;;;;5.68;2.30;;;16.60;99.90;;;;;;5093389;28;20227;-51
2023/07/05 07:14:04;;;;;;;6.05;2.38;;;16.50;99.90;;;;;;5093296;28;20197;-51
2023/07/05 07:16:29;;;;;;;3.05;1.73;;;16.70;99.90;;;;;;5074844;28;20219;-51
2023/07/05 07:18:56;;;;;;;3.53;2.05;;;16.40;99.90;;;;;;5093067;28;20312;-51
2023/07/05 07:21:22;;;;;;;3.92;2.35;;;16.40;99.90;;;;;;5092876;28;20590;-51
2023/07/05 07:23:48;;;;;;;7.38;2.33;;;16.20;99.90;;;;;;5093126;28;20193;-51
2023/07/05 07:26:17;;;;;;;3.65;2.05;;;16.20;99.90;;;;;;5092831;28;20180;-51
2023/07/05 07:28:49;;;;;;;3.25;1.73;;;16.20;99.90;;;;;;5093155;28;20636;-51
2023/07/05 07:31:21;;;;;;;2.17;1.50;;;16.20;99.90;;;;;;5092752;28;20593;-51
2023/07/05 07:33:47;;;;;;;5.32;1.83;;;16.20;99.90;;;;;;5092674;28;20244;-51
2023/07/05 07:36:17;;;;;;;2.80;1.80;;;16.00;99.90;;;;;;5092855;28;20165;-51
2023/07/05 07:38:43;;;;;;;10.35;2.03;;;16.20;99.90;;;;;;5092927;28;20197;-51
2023/07/05 07:41:17;;;;;;;6.15;1.70;;;16.20;99.90;;;;;;5092586;28;20608;-51
2023/07/05 07:43:43;;;;;;;2.67;1.90;;;15.90;99.90;;;;;;5093116;28;20180;-51
2023/07/05 07:46:14;;;;;;;6.57;1.83;;;15.90;99.90;;;;;;5093095;28;20240;-51
2023/07/05 07:48:42;;;;;;;4.43;1.90;;;15.90;99.90;;;;;;5092313;28;20171;-51
2023/07/05 07:51:08;;;;;;;4.57;1.60;;;15.80;99.90;;;;;;5092610;28;20256;-51
2023/07/05 07:53:34;;;;;;;1.50;1.40;;;15.90;99.90;;;;;;5092246;28;20189;-51
2023/07/05 07:56:00;;;;;;;3.60;1.45;;;16.20;99.90;;;;;;5092187;28;20204;-51
2023/07/05 07:58:26;;;;;;;5.00;1.65;;;16.10;99.90;;;;;;5092374;28;20297;-51
2023/07/05 08:00:52;;;;;;;3.25;1.50;;;16.30;99.90;;;;;;5092048;28;20218;-51
2023/07/05 08:03:18;;;;;;;2.20;1.35;;;16.30;99.90;;;;;;5092241;28;20218;-51
2023/07/05 08:05:43;;;;;;;3.55;1.38;;;16.40;99.90;;;;;;5092202;28;20169;-51
2023/07/05 08:08:09;;;;;;;2.85;1.38;;;16.60;99.90;;;;;;5092330;28;20218;-51
2023/07/05 08:10:34;;;;;;;5.32;1.73;;;16.80;99.90;;;;;;5091777;28;20216;-51
2023/07/05 08:13:00;;;;;;;4.07;1.52;;;16.90;99.90;;;;;;5091869;28;20241;-51
2023/07/05 08:15:26;;;;;;;3.70;1.90;;;17.10;99.90;;;;;;5073758;28;20174;-51
2023/07/05 08:17:52;;;;;;;3.78;1.50;;;17.20;99.90;;;;;;5091187;28;20200;-51
2023/07/05 08:20:17;;;;;;;2.63;1.13;;;17.20;99.90;;;;;;5091934;28;20503;-51
2023/07/05 08:22:43;;;;;;;1.63;1.30;;;17.20;99.90;;;;;;5092281;28;20169;-51
2023/07/05 08:25:09;;;;;;;5.07;1.70;;;17.20;99.90;;;;;;5092196;28;20180;-51
2023/07/05 08:27:34;;;;;;;5.55;1.70;;;17.20;99.90;;;;;;5091781;28;20165;-51
2023/07/05 08:30:00;;;;;;;5.25;1.70;;;17.10;99.90;;;;;;5091789;28;20172;-51
2023/07/05 08:32:26;;;;;;;6.95;1.40;;;17.40;99.90;;;;;;5091674;28;20165;-51
2023/07/05 08:34:51;;;;;;;4.85;1.50;;;17.50;99.90;;;;;;5091741;28;20257;-51
2023/07/05 08:37:17;;;;;;;3.50;1.77;;;17.50;99.90;;;;;;5091601;28;20168;-51
2023/07/05 08:39:42;;;;;;;4.30;1.40;;;17.60;99.90;;;;;;5092085;28;20162;-52
2023/07/05 08:42:42;;;;;;;5.35;1.60;;;17.70;99.90;;;;;;5092201;28;20200;-51
2023/07/05 08:45:15;;;;;;;2.42;1.60;;;17.90;99.90;;;;;;5091890;28;20252;-51
2023/07/05 08:47:51;;;;;;;2.78;1.60;;;18.10;99.90;;;;;;5092227;28;20173;-51
2023/07/05 08:50:30;;;;;;;1.50;1.20;;;18.00;99.90;;;;;;5091530;28;20158;-51
2023/07/05 08:53:05;;;;;;;6.07;1.40;;;17.90;99.90;;;;;;5091530;28;20168;-51
2023/07/05 08:55:55;;;;;;;2.58;1.35;;;17.90;99.90;;;;;;5073903;28;20275;-51
2023/07/05 08:58:28;;;;;;;2.03;1.33;;;18.00;99.90;;;;;;5042796;28;20217;-51
2023/07/05 09:00:59;;;;;;;5.70;1.63;;;17.80;99.90;;;;;;5091423;28;20222;-51
2023/07/05 09:03:28;;;;;;;2.85;1.20;;;18.10;99.90;;;;;;5091499;28;20494;-51
2023/07/05 09:06:12;;;;;;;11.27;1.77;;;18.40;99.90;;;;;;5091705;28;20173;-51
2023/07/05 09:09:06;;;;;;;3.15;1.70;;;18.40;99.90;;;;;;5091392;28;20520;-51
2023/07/05 09:11:49;;;;;;;3.25;1.63;;;20.70;99.90;;;;;;5091399;28;20174;-51
2023/07/05 09:14:27;;;;;;;3.30;1.67;;;18.00;99.90;;;;;;5091262;28;20697;-51
2023/07/05 09:17:02;;;;;;;4.18;1.00;;;18.20;99.90;;;;;;5091246;28;20244;-51
2023/07/05 09:19:58;;;;;;;8.43;1.80;;;18.00;99.90;;;;;;5091273;28;20196;-51
2023/07/05 09:22:27;;;;;;;4.13;1.35;;;18.10;99.90;;;;;;5091575;28;20170;-51
2023/07/05 09:24:55;;;;;;;7.78;2.03;;;18.30;99.90;;;;;;5091489;28;20227;-51
2023/07/05 09:27:32;;;;;;;4.20;1.65;;;18.30;99.90;;;;;;5091193;28;20533;-51
2023/07/05 09:30:09;;;;;;;4.28;1.75;;;18.20;99.90;;;;;;5093943;28;20169;-51
2023/07/05 09:32:37;;;;;;;3.05;1.42;;;18.50;99.90;;;;;;5094972;28;20193;-51
2023/07/05 09:35:04;;;;;;;5.28;1.35;;;18.70;99.90;;;;;;5095190;28;20238;-51
2023/07/05 09:37:35;;;;;;;5.30;1.80;;;18.40;99.90;;;;;;5095131;28;20229;-51
2023/07/05 09:40:17;;;;;;;5.20;1.60;;;18.40;99.90;;;;;;5076866;28;20201;-51
2023/07/05 09:42:56;;;;;;;7.68;1.70;;;18.30;99.90;;;;;;5095014;28;20166;-51
2023/07/05 09:45:22;;;;;;;7.13;1.73;;;18.50;99.90;;;;;;5094900;28;20644;-51
2023/07/05 09:47:52;;;;;;;3.85;1.65;;;18.60;99.90;;;;;;5094859;28;20172;-51
2023/07/05 09:50:20;;;;;;;4.70;1.88;;;18.90;99.90;;;;;;5094836;28;20161;-51
2023/07/05 09:52:49;;;;;;;21.17;2.80;;;19.10;99.90;;;;;;5094642;28;20169;-51
2023/07/05 09:55:17;;;;;;;13.63;2.35;;;18.80;99.90;;;;;;5094620;28;20244;-51
2023/07/05 09:57:42;;;;;;;4.07;1.85;;;18.80;99.90;;;;;;5094998;28;20201;-52
2023/07/05 10:00:24;;;;;;;6.95;2.20;;;18.70;99.90;;;;;;5095293;28;20260;-51
2023/07/05 10:02:55;;;;;;;5.28;2.03;;;19.00;99.90;;;;;;5094487;28;20162;-51
2023/07/05 10:05:28;;;;;;;5.07;1.75;;;19.20;99.90;;;;;;5094536;28;20181;-51
2023/07/05 10:08:00;;;;;;;6.25;1.60;;;19.20;99.90;;;;;;5094726;28;20201;-52
2023/07/05 10:10:32;;;;;;;5.35;1.40;;;19.30;99.90;;;;;;5094214;28;20221;-51
2023/07/05 10:13:03;;;;;;;9.82;1.80;;;19.50;99.90;;;;;;5094307;28;20173;-51
2023/07/05 10:15:28;;;;;;;7.97;1.92;;;19.30;99.90;;;;;;5094194;28;20166;-52
2023/07/05 10:17:55;;;;;;;4.72;1.30;;;19.40;99.90;;;;;;5094255;28;20726;-52
2023/07/05 10:20:30;;;;;;;7.13;1.85;;;19.60;99.90;;;;;;5094128;28;20203;-51
2023/07/05 10:23:24;;;;;;;9.25;2.10;;;19.70;99.90;;;;;;5094199;28;20252;-51
2023/07/05 10:25:51;;;;;;;5.55;1.90;;;19.80;99.90;;;;;;5093528;28;20245;-51
2023/07/05 10:28:21;;;;;;;4.20;1.40;;;19.80;99.90;;;;;;5093956;28;20173;-52
2023/07/05 10:30:51;;;;;;;5.85;1.70;;;20.00;99.90;;;;;;5094171;28;20702;-51
2023/07/05 10:33:31;;;;;;;4.75;1.30;;;19.60;99.90;;;;;;5094139;28;20568;-51
2023/07/05 10:36:12;;;;;;;5.18;2.25;;;19.20;99.90;;;;;;5094116;28;20586;-51
2023/07/05 10:38:48;;;;;;;4.78;2.10;;;19.20;99.90;;;;;;5094442;28;20243;-51
2023/07/05 10:41:20;;;;;;;4.18;1.63;;;19.30;99.90;;;;;;5092774;28;20176;-51
2023/07/05 10:43:52;;;;;;;2.72;1.40;;;20.00;99.90;;;;;;5093707;28;20240;-50
2023/07/05 10:46:24;;;;;;;3.88;1.40;;;19.80;99.90;;;;;;5093676;28;20184;-50
2023/07/05 10:48:50;;;;;;;10.60;2.25;;;19.80;99.90;;;;;;5075503;28;20165;-50
2023/07/05 10:51:23;;;;;;;5.47;1.52;;;20.10;99.90;;;;;;5093524;28;20530;-50
2023/07/05 10:54:00;;;;;;;4.60;1.98;;;20.10;99.90;;;;;;5093619;28;20260;-51
2023/07/05 10:56:32;;;;;;;10.63;1.88;;;20.20;99.90;;;;;;5093457;28;20168;-51
2023/07/05 10:59:19;;;;;;;4.13;1.45;;;20.20;99.90;;;;;;5093571;28;20236;-51
2023/07/05 11:01:54;;;;;;;11.43;2.40;;;20.40;99.90;;;;;;5075158;28;20276;-51
2023/07/05 11:04:24;;;;;;;5.78;1.50;;;20.50;99.90;;;;;;5093226;28;20161;-51
2023/07/05 11:06:53;;;;;;;6.20;1.60;;;20.20;99.90;;;;;;5075563;28;20197;-51
2023/07/05 11:09:19;;;;;;;7.43;2.08;;;20.10;99.90;;;;;;5093155;28;20248;-51
2023/07/05 11:11:51;;;;;;;6.15;2.00;;;20.20;99.90;;;;;;5093405;28;20253;-51
2023/07/05 11:14:17;;;;;;;3.65;1.50;;;20.50;99.90;;;;;;5093369;28;20173;-51
2023/07/05 11:16:45;;;;;;;2.75;1.52;;;20.70;99.90;;;;;;5093107;28;20161;-51
2023/07/05 11:19:14;;;;;;;8.18;1.90;;;20.80;99.90;;;;;;5075188;28;20209;-51
2023/07/05 11:21:48;;;;;;;7.68;2.33;;;20.70;99.90;;;;;;5093452;28;20196;-51
2023/07/05 11:24:38;;;;;;;5.53;1.83;;;20.80;99.90;;;;;;5093172;28;20169;-51
2023/07/05 11:27:24;;;;;;;4.97;2.00;;;20.70;99.90;;;;;;5092767;28;20165;-51
2023/07/05 11:29:51;;;;;;;3.45;1.38;;;21.20;99.90;;;;;;5092583;28;20421;-51
2023/07/05 11:32:21;;;;;;;5.47;1.63;;;21.20;99.90;;;;;;5093030;28;20177;-51
2023/07/05 11:34:52;;;;;;;5.03;1.95;;;21.20;99.90;;;;;;5092946;28;20581;-51
2023/07/05 11:37:21;;;;;;;7.28;1.92;;;21.20;99.90;;;;;;5092758;28;20180;-51
2023/07/05 11:39:49;;;;;;;5.97;1.90;;;20.70;99.90;;;;;;5092542;28;20197;-51
2023/07/05 11:42:19;;;;;;;7.25;1.98;;;20.50;99.90;;;;;;5092642;28;20162;-51
2023/07/05 11:44:55;;;;;;;4.22;2.00;;;20.60;99.90;;;;;;5092747;28;20169;-51
2023/07/05 11:47:23;;;;;;;5.65;1.60;;;21.10;99.90;;;;;;5092442;28;20161;-51
2023/07/05 11:49:53;;;;;;;7.65;2.17;;;21.10;99.90;;;;;;5092459;28;20244;-51
2023/07/05 11:52:29;;;;;;;8.20;1.75;;;21.20;99.90;;;;;;5092208;28;20555;-51
2023/07/05 11:55:19;;;;;;;5.55;1.80;;;21.00;99.90;;;;;;5092593;28;20172;-51
2023/07/05 11:57:57;;;;;;;5.05;2.03;;;21.40;99.90;;;;;;5091806;28;20213;-51
2023/07/05 12:00:38;;;;;;;10.38;2.53;;;21.20;99.90;;;;;;5092152;28;20248;-51
2023/07/05 12:03:13;;;;;;;11.63;2.45;;;21.20;99.90;;;;;;5092239;28;20214;-51
2023/07/05 12:05:39;;;;;;;13.50;2.70;;;21.50;99.90;;;;;;5074273;28;20565;-52
2023/07/05 12:08:14;;;;;;;8.50;2.38;;;21.60;99.90;;;;;;5091972;28;20226;-51
2023/07/05 12:10:45;;;;;;;8.82;1.70;;;21.50;99.90;;;;;;5092303;28;20572;-51
2023/07/05 12:13:19;;;;;;;7.57;2.10;;;21.20;99.90;;;;;;5092361;28;20184;-51
2023/07/05 12:15:45;;;;;;;1.77;1.30;;;20.90;99.90;;;;;;5091999;28;20255;-51
2023/07/05 12:18:14;;;;;;;5.28;2.33;;;20.30;99.90;;;;;;5092236;28;20810;-51
2023/07/05 12:20:47;;;;;;;7.57;1.98;;;20.00;99.90;;;;;;5092669;28;20224;-51
2023/07/05 12:23:15;;;;;;;34.22;4.22;;;19.50;99.90;;;;;;5091908;28;20172;-51
2023/07/05 12:25:50;;;;;;;49.50;5.38;;;19.10;99.90;;;;;;5092261;28;20166;-51
2023/07/05 12:28:19;;;;;;;4.82;1.95;;;19.10;99.90;;;;;;5091924;28;20185;-51
2023/07/05 12:30:45;;;;;;;11.38;2.42;;;19.60;99.90;;;;;;5091751;28;20165;-52
2023/07/05 12:33:38;;;;;;;11.15;2.40;;;20.00;99.90;;;;;;5092147;28;20176;-52
2023/07/05 12:36:03;;;;;;;9.05;2.50;;;20.10;99.90;;;;;;5087285;28;20181;-52
2023/07/05 12:38:29;;;;;;;5.90;1.77;;;19.80;99.90;;;;;;5091499;28;20250;-52
2023/07/05 12:40:55;;;;;;;3.85;2.22;;;19.60;99.90;;;;;;5091671;28;20768;-52
2023/07/05 12:43:32;;;;;;;6.72;2.45;;;19.70;99.90;;;;;;5091692;28;20161;-52
2023/07/05 12:46:21;;;;;;;4.18;1.95;;;20.20;99.90;;;;;;5091484;28;20585;-52
2023/07/05 12:48:49;;;;;;;5.30;1.95;;;20.30;99.90;;;;;;5091600;28;20314;-52
2023/07/05 12:51:22;;;;;;;6.88;1.85;;;20.40;99.90;;;;;;5073417;28;20226;-52
2023/07/05 12:53:56;;;;;;;2.85;1.88;;;20.20;99.90;;;;;;5091492;28;20172;-52
2023/07/05 12:56:31;;;;;;;4.22;2.00;;;20.40;99.90;;;;;;5091450;28;20223;-52
2023/07/05 12:59:03;;;;;;;6.22;2.05;;;20.30;99.90;;;;;;5091686;28;20553;-52